createdAt,value
2023-05-18T00:00:16.249Z,0.00
2023-05-18T00:01:16.141Z,0.00
2023-05-18T00:02:16.290Z,0.00
2023-05-18T00:03:16.180Z,0.00
2023-05-18T00:04:16.152Z,0.00
2023-05-18T00:05:16.120Z,0.00
2023-05-18T00:06:16.063Z,0.00
2023-05-18T00:07:16.069Z,0.00
2023-05-18T00:08:16.058Z,0.00
2023-05-18T00:09:16.028Z,0.00
2023-05-18T00:10:16.098Z,0.00
2023-05-18T00:11:16.000Z,0.00
2023-05-18T00:12:15.986Z,0.00
2023-05-18T00:13:16.024Z,0.00
2023-05-18T00:14:15.969Z,0.00
2023-05-18T00:15:15.932Z,0.00
2023-05-18T00:16:16.167Z,0.00
2023-05-18T00:17:15.912Z,0.00
2023-05-18T00:18:15.927Z,0.00
2023-05-18T00:19:15.934Z,0.00
2023-05-18T00:20:15.921Z,0.00
2023-05-18T00:21:15.870Z,0.00
2023-05-18T00:22:15.855Z,0.00
2023-05-18T00:23:15.851Z,0.00
2023-05-18T00:24:15.810Z,0.00
2023-05-18T00:25:15.816Z,0.00
2023-05-18T00:26:15.798Z,0.00
2023-05-18T00:27:15.829Z,0.00
2023-05-18T00:28:15.760Z,0.00
2023-05-18T00:29:15.781Z,0.00
2023-05-18T00:30:15.742Z,0.00
2023-05-18T00:31:15.765Z,0.00
2023-05-18T00:32:15.736Z,0.00
2023-05-18T00:33:15.693Z,0.00
2023-05-18T00:34:15.697Z,0.00
2023-05-18T00:35:15.673Z,0.00
2023-05-18T00:36:15.690Z,0.00
2023-05-18T00:37:15.705Z,0.00
2023-05-18T00:38:15.695Z,0.00
2023-05-18T00:39:15.616Z,0.00
2023-05-18T00:40:15.609Z,0.00
2023-05-18T00:41:15.622Z,0.00
2023-05-18T00:42:15.600Z,0.00
2023-05-18T00:43:15.580Z,0.00
2023-05-18T00:44:15.573Z,0.00
2023-05-18T00:45:15.545Z,0.00
2023-05-18T00:46:15.579Z,0.00
2023-05-18T00:47:15.532Z,0.00
2023-05-18T00:48:15.561Z,0.00
2023-05-18T00:49:15.509Z,0.00
2023-05-18T00:50:15.477Z,0.00
2023-05-18T00:51:15.513Z,0.00
2023-05-18T00:52:15.435Z,0.00
2023-05-18T00:53:15.458Z,0.00
2023-05-18T00:54:15.446Z,0.00
2023-05-18T00:55:15.447Z,0.00
2023-05-18T00:56:15.399Z,0.00
2023-05-18T00:57:15.396Z,0.00
2023-05-18T00:58:15.360Z,0.00
2023-05-18T00:59:15.367Z,0.00
2023-05-18T01:00:15.377Z,0.00
2023-05-18T01:01:15.344Z,0.00
2023-05-18T01:02:15.336Z,0.00
2023-05-18T01:03:15.403Z,0.00
2023-05-18T01:04:15.275Z,0.00
2023-05-18T01:05:15.304Z,0.00
2023-05-18T01:06:15.246Z,0.00
2023-05-18T01:07:15.252Z,0.00
2023-05-18T01:08:15.239Z,0.00
2023-05-18T01:09:15.228Z,0.00
2023-05-18T01:10:15.241Z,0.00
2023-05-18T01:11:15.252Z,0.00
2023-05-18T01:12:15.203Z,0.00
2023-05-18T01:13:15.183Z,0.00
2023-05-18T01:14:15.174Z,0.00
2023-05-18T01:15:15.146Z,0.00
2023-05-18T01:16:15.110Z,0.00
2023-05-18T01:17:15.148Z,0.00
2023-05-18T01:18:15.158Z,0.00
2023-05-18T01:19:15.222Z,0.00
2023-05-18T01:20:15.066Z,0.00
2023-05-18T01:21:15.057Z,0.00
2023-05-18T01:22:15.040Z,0.00
2023-05-18T01:23:15.055Z,0.00
2023-05-18T01:24:15.016Z,0.00
2023-05-18T01:25:15.000Z,0.00
2023-05-18T01:26:15.008Z,0.00
2023-05-18T01:27:14.994Z,0.00
2023-05-18T01:28:14.961Z,0.00
2023-05-18T01:29:14.947Z,0.00
2023-05-18T01:30:14.935Z,0.00
2023-05-18T01:31:14.982Z,0.00
2023-05-18T01:32:14.931Z,0.00
2023-05-18T01:33:14.931Z,0.00
2023-05-18T01:34:14.914Z,0.00
2023-05-18T01:35:14.877Z,0.00
2023-05-18T01:36:14.848Z,0.00
2023-05-18T01:37:14.878Z,0.00
2023-05-18T01:38:14.824Z,0.00
2023-05-18T01:39:14.815Z,0.00
2023-05-18T01:40:14.796Z,0.00
2023-05-18T01:41:14.800Z,0.00
2023-05-18T01:42:14.808Z,0.00
2023-05-18T01:43:14.775Z,0.00
2023-05-18T01:44:14.741Z,0.00
2023-05-18T01:45:14.736Z,0.00
2023-05-18T01:46:14.765Z,0.00
2023-05-18T01:47:14.736Z,0.00
2023-05-18T01:48:14.693Z,0.00
2023-05-18T01:49:14.721Z,0.00
2023-05-18T01:50:14.649Z,0.00
2023-05-18T01:51:14.709Z,0.00
2023-05-18T01:52:14.641Z,0.00
2023-05-18T01:53:14.631Z,0.00
2023-05-18T01:54:14.643Z,0.00
2023-05-18T01:55:14.601Z,0.00
2023-05-18T01:56:14.599Z,0.00
2023-05-18T01:57:14.592Z,0.00
2023-05-18T01:58:14.550Z,0.00
2023-05-18T01:59:14.546Z,0.00
2023-05-18T02:00:14.551Z,0.00
2023-05-18T02:01:14.568Z,0.00
2023-05-18T02:02:14.564Z,0.00
2023-05-18T02:03:14.586Z,0.00
2023-05-18T02:04:14.584Z,0.00
2023-05-18T02:05:14.521Z,0.00
2023-05-18T02:06:14.440Z,0.00
2023-05-18T02:07:14.442Z,0.00
2023-05-18T02:08:14.415Z,0.00
2023-05-18T02:09:14.434Z,0.00
2023-05-18T02:10:14.449Z,0.00
2023-05-18T02:11:14.377Z,0.00
2023-05-18T02:12:14.370Z,0.00
2023-05-18T02:13:14.348Z,0.00
2023-05-18T02:14:14.382Z,0.00
2023-05-18T02:15:14.346Z,0.00
2023-05-18T02:16:14.352Z,0.00
2023-05-18T02:17:14.293Z,0.00
2023-05-18T02:18:14.309Z,0.00
2023-05-18T02:19:14.358Z,0.00
2023-05-18T02:20:14.265Z,0.00
2023-05-18T02:21:14.255Z,0.00
2023-05-18T02:22:14.227Z,0.00
2023-05-18T02:23:14.214Z,0.00
2023-05-18T02:24:14.270Z,0.00
2023-05-18T02:25:14.190Z,0.00
2023-05-18T02:26:14.188Z,0.00
2023-05-18T02:27:14.167Z,0.00
2023-05-18T02:28:14.168Z,0.00
2023-05-18T02:29:14.127Z,0.00
2023-05-18T02:30:15.981Z,0.00
2023-05-18T02:31:14.118Z,0.00
2023-05-18T02:32:14.252Z,0.00
2023-05-18T02:33:14.183Z,0.00
2023-05-18T02:34:14.079Z,0.00
2023-05-18T02:35:14.057Z,0.00
2023-05-18T02:36:14.043Z,0.00
2023-05-18T02:37:14.051Z,0.00
2023-05-18T02:38:14.019Z,0.00
2023-05-18T02:39:14.013Z,0.00
2023-05-18T02:40:13.978Z,0.00
2023-05-18T02:41:13.988Z,0.00
2023-05-18T02:42:13.967Z,0.00
2023-05-18T02:43:13.943Z,0.00
2023-05-18T02:44:13.925Z,0.00
2023-05-18T02:45:13.910Z,0.00
2023-05-18T02:46:13.925Z,0.00
2023-05-18T02:47:13.923Z,0.00
2023-05-18T02:48:13.880Z,0.00
2023-05-18T02:49:13.860Z,0.00
2023-05-18T02:50:13.861Z,0.00
2023-05-18T02:51:13.895Z,0.00
2023-05-18T02:52:13.846Z,0.00
2023-05-18T02:53:13.817Z,0.00
2023-05-18T02:54:13.806Z,0.00
2023-05-18T02:55:13.852Z,0.00
2023-05-18T02:56:13.795Z,0.00
2023-05-18T02:57:13.755Z,0.00
2023-05-18T02:58:13.742Z,0.00
2023-05-18T02:59:13.730Z,0.00
2023-05-18T03:00:13.718Z,0.00
2023-05-18T03:01:13.765Z,0.00
2023-05-18T03:02:13.717Z,0.00
2023-05-18T03:03:13.819Z,0.00
2023-05-18T03:04:13.667Z,0.00
2023-05-18T03:05:13.670Z,0.00
2023-05-18T03:06:13.659Z,0.00
2023-05-18T03:07:13.646Z,0.00
2023-05-18T03:08:13.597Z,0.00
2023-05-18T03:09:13.599Z,0.00
2023-05-18T03:10:13.610Z,0.00
2023-05-18T03:11:14.682Z,0.00
2023-05-18T03:12:13.549Z,0.00
2023-05-18T03:13:13.551Z,0.00
2023-05-18T03:14:13.535Z,0.00
2023-05-18T03:15:13.541Z,0.00
2023-05-18T03:16:13.577Z,0.00
2023-05-18T03:17:13.513Z,0.00
2023-05-18T03:18:13.469Z,0.00
2023-05-18T03:19:13.557Z,0.00
2023-05-18T03:20:13.459Z,0.00
2023-05-18T03:21:13.447Z,0.00
2023-05-18T03:22:13.416Z,0.00
2023-05-18T03:23:13.418Z,0.00
2023-05-18T03:24:13.457Z,0.00
2023-05-18T03:25:13.386Z,0.00
2023-05-18T03:26:13.394Z,0.00
2023-05-18T03:27:13.385Z,0.00
2023-05-18T03:28:13.347Z,0.00
2023-05-18T03:29:13.416Z,0.00
2023-05-18T03:30:13.362Z,0.00
2023-05-18T03:31:13.365Z,0.00
2023-05-18T03:32:13.336Z,0.00
2023-05-18T03:33:13.357Z,0.00
2023-05-18T03:34:13.267Z,0.00
2023-05-18T03:35:13.249Z,0.00
2023-05-18T03:36:13.236Z,0.00
2023-05-18T03:37:13.221Z,0.00
2023-05-18T03:38:13.246Z,0.00
2023-05-18T03:39:13.203Z,0.00
2023-05-18T03:40:13.200Z,0.00
2023-05-18T03:41:13.182Z,0.00
2023-05-18T03:42:13.197Z,0.00
2023-05-18T03:43:13.169Z,0.00
2023-05-18T03:44:13.123Z,0.00
2023-05-18T03:45:13.113Z,0.00
2023-05-18T03:46:13.146Z,5.62
2023-05-18T03:47:13.095Z,5.62
2023-05-18T03:48:13.155Z,5.62
2023-05-18T03:49:13.104Z,5.62
2023-05-18T03:50:13.036Z,5.62
2023-05-18T03:51:13.082Z,5.62
2023-05-18T03:52:13.100Z,5.62
2023-05-18T03:53:13.000Z,5.62
2023-05-18T03:54:12.989Z,5.62
2023-05-18T03:55:12.982Z,5.62
2023-05-18T03:56:12.998Z,5.62
2023-05-18T03:57:13.003Z,5.62
2023-05-18T03:58:12.942Z,5.62
2023-05-18T03:59:12.926Z,11.25
2023-05-18T04:00:12.895Z,11.25
2023-05-18T04:01:12.931Z,11.25
2023-05-18T04:02:12.973Z,11.25
2023-05-18T04:03:12.951Z,11.25
2023-05-18T04:04:12.887Z,11.25
2023-05-18T04:05:12.869Z,11.25
2023-05-18T04:06:12.863Z,11.25
2023-05-18T04:07:14.264Z,11.25
2023-05-18T04:08:12.833Z,11.25
2023-05-18T04:09:12.799Z,16.88
2023-05-18T04:10:12.811Z,16.88
2023-05-18T04:11:12.815Z,16.88
2023-05-18T04:12:12.763Z,16.88
2023-05-18T04:13:12.727Z,16.88
2023-05-18T04:14:12.716Z,16.88
2023-05-18T04:15:12.718Z,16.88
2023-05-18T04:16:12.774Z,16.88
2023-05-18T04:17:12.689Z,16.88
2023-05-18T04:18:12.904Z,22.50
2023-05-18T04:19:12.699Z,22.50
2023-05-18T04:20:12.696Z,22.50
2023-05-18T04:21:12.678Z,22.50
2023-05-18T04:22:12.620Z,22.50
2023-05-18T04:23:12.611Z,22.50
2023-05-18T04:24:12.606Z,22.50
2023-05-18T04:25:12.620Z,22.50
2023-05-18T04:26:12.595Z,22.50
2023-05-18T04:27:12.557Z,22.50
2023-05-18T04:28:12.525Z,22.50
2023-05-18T04:29:12.526Z,28.12
2023-05-18T04:30:12.521Z,28.12
2023-05-18T04:31:12.502Z,28.12
2023-05-18T04:32:12.524Z,28.12
2023-05-18T04:33:12.505Z,28.12
2023-05-18T04:34:12.508Z,28.12
2023-05-18T04:35:12.467Z,28.12
2023-05-18T04:36:12.419Z,28.12
2023-05-18T04:37:12.416Z,28.12
2023-05-18T04:38:12.423Z,28.12
2023-05-18T04:39:12.401Z,33.75
2023-05-18T04:40:12.371Z,33.75
2023-05-18T04:41:12.355Z,33.75
2023-05-18T04:42:12.342Z,33.75
2023-05-18T04:43:12.351Z,33.75
2023-05-18T04:44:12.350Z,33.75
2023-05-18T04:45:12.331Z,33.75
2023-05-18T04:46:12.386Z,33.75
2023-05-18T04:47:12.279Z,33.75
2023-05-18T04:48:12.362Z,33.75
2023-05-18T04:49:12.280Z,33.75
2023-05-18T04:50:12.226Z,33.75
2023-05-18T04:51:12.237Z,33.75
2023-05-18T04:52:12.211Z,33.75
2023-05-18T04:53:12.236Z,33.75
2023-05-18T04:54:12.179Z,33.75
2023-05-18T04:55:12.184Z,33.75
2023-05-18T04:56:12.188Z,33.75
2023-05-18T04:57:12.147Z,39.38
2023-05-18T04:58:12.136Z,39.38
2023-05-18T04:59:12.107Z,39.38
2023-05-18T05:00:12.132Z,39.38
2023-05-18T05:01:12.141Z,39.38
2023-05-18T05:02:12.186Z,39.38
2023-05-18T05:03:12.125Z,39.38
2023-05-18T05:04:12.053Z,39.38
2023-05-18T05:05:12.037Z,39.38
2023-05-18T05:06:12.023Z,39.38
2023-05-18T05:07:12.038Z,39.38
2023-05-18T05:08:12.013Z,39.38
2023-05-18T05:09:11.966Z,39.38
2023-05-18T05:10:11.965Z,39.38
2023-05-18T05:11:12.032Z,39.38
2023-05-18T05:12:11.969Z,39.38
2023-05-18T05:13:11.912Z,39.38
2023-05-18T05:14:11.911Z,39.38
2023-05-18T05:15:11.886Z,39.38
2023-05-18T05:16:12.036Z,39.38
2023-05-18T05:17:11.857Z,39.38
2023-05-18T05:18:11.922Z,39.38
2023-05-18T05:19:11.870Z,39.38
2023-05-18T05:20:11.833Z,39.38
2023-05-18T05:21:11.860Z,39.38
2023-05-18T05:22:11.821Z,39.38
2023-05-18T05:23:11.795Z,39.38
2023-05-18T05:24:11.786Z,39.38
2023-05-18T05:25:11.805Z,39.38
2023-05-18T05:26:11.786Z,39.38
2023-05-18T05:27:11.741Z,39.38
2023-05-18T05:28:11.727Z,39.38
2023-05-18T05:29:11.720Z,39.38
2023-05-18T05:30:11.717Z,39.38
2023-05-18T05:31:11.729Z,39.38
2023-05-18T05:32:11.682Z,39.38
2023-05-18T05:33:11.695Z,39.38
2023-05-18T05:34:11.653Z,39.38
2023-05-18T05:35:11.686Z,45.00
2023-05-18T05:36:11.617Z,45.00
2023-05-18T05:37:11.623Z,45.00
2023-05-18T05:38:11.593Z,45.00
2023-05-18T05:39:11.592Z,45.00
2023-05-18T05:40:11.637Z,45.00
2023-05-18T05:41:11.547Z,45.00
2023-05-18T05:42:11.555Z,45.00
2023-05-18T05:43:11.525Z,45.00
2023-05-18T05:44:11.753Z,45.00
2023-05-18T05:45:11.496Z,45.00
2023-05-18T05:46:11.489Z,45.00
2023-05-18T05:47:11.549Z,45.00
2023-05-18T05:48:13.738Z,45.00
2023-05-18T05:49:11.460Z,45.00
2023-05-18T05:50:11.439Z,45.00
2023-05-18T05:51:11.422Z,45.00
2023-05-18T05:52:11.434Z,45.00
2023-05-18T05:53:11.444Z,45.00
2023-05-18T05:54:11.407Z,45.00
2023-05-18T05:55:11.359Z,45.00
2023-05-18T05:56:11.377Z,45.00
2023-05-18T05:57:11.339Z,45.00
2023-05-18T05:58:11.357Z,45.00
2023-05-18T05:59:11.326Z,45.00
2023-05-18T06:00:11.330Z,45.00
2023-05-18T06:01:11.297Z,50.62
2023-05-18T06:02:11.308Z,50.62
2023-05-18T06:03:11.331Z,50.62
2023-05-18T06:04:11.258Z,50.62
2023-05-18T06:05:11.232Z,50.62
2023-05-18T06:06:11.236Z,50.62
2023-05-18T06:07:11.229Z,50.62
2023-05-18T06:08:11.207Z,50.62
2023-05-18T06:09:11.171Z,50.62
2023-05-18T06:10:11.177Z,50.62
2023-05-18T06:11:11.595Z,50.62
2023-05-18T06:12:11.178Z,50.62
2023-05-18T06:13:11.132Z,50.62
2023-05-18T06:14:11.109Z,50.62
2023-05-18T06:15:11.101Z,50.62
2023-05-18T06:16:11.160Z,50.62
2023-05-18T06:17:11.113Z,50.62
2023-05-18T06:18:13.397Z,50.62
2023-05-18T06:19:11.067Z,50.62
2023-05-18T06:20:11.026Z,50.62
2023-05-18T06:21:11.058Z,50.62
2023-05-18T06:22:11.020Z,50.62
2023-05-18T06:23:10.990Z,50.62
2023-05-18T06:24:10.993Z,50.62
2023-05-18T06:25:10.967Z,50.62
2023-05-18T06:26:11.015Z,50.62
2023-05-18T06:27:10.922Z,50.62
2023-05-18T06:28:10.911Z,50.62
2023-05-18T06:29:10.934Z,50.62
2023-05-18T06:30:10.907Z,50.62
2023-05-18T06:31:10.892Z,56.25
2023-05-18T06:32:10.909Z,56.25
2023-05-18T06:33:10.912Z,56.25
2023-05-18T06:34:10.842Z,56.25
2023-05-18T06:35:10.898Z,56.25
2023-05-18T06:36:10.832Z,56.25
2023-05-18T06:37:10.789Z,56.25
2023-05-18T06:38:10.795Z,56.25
2023-05-18T06:39:10.765Z,56.25
2023-05-18T06:40:10.806Z,61.88
2023-05-18T06:41:10.737Z,61.88
2023-05-18T06:42:10.736Z,61.88
2023-05-18T06:43:10.713Z,61.88
2023-05-18T06:44:10.699Z,61.88
2023-05-18T06:45:10.736Z,61.88
2023-05-18T06:46:10.691Z,61.88
2023-05-18T06:47:10.680Z,61.88
2023-05-18T06:48:10.704Z,61.88
2023-05-18T06:49:10.657Z,61.88
2023-05-18T06:50:10.656Z,61.88
2023-05-18T06:51:10.643Z,61.88
2023-05-18T06:52:10.592Z,67.50
2023-05-18T06:53:10.581Z,67.50
2023-05-18T06:54:10.642Z,67.50
2023-05-18T06:55:10.550Z,61.88
2023-05-18T06:56:10.540Z,61.88
2023-05-18T06:57:10.531Z,61.88
2023-05-18T06:58:10.541Z,67.50
2023-05-18T06:59:10.555Z,67.50
2023-05-18T07:00:10.493Z,67.50
2023-05-18T07:01:10.513Z,61.88
2023-05-18T07:02:10.459Z,61.88
2023-05-18T07:03:10.552Z,61.88
2023-05-18T07:04:10.455Z,61.88
2023-05-18T07:05:10.418Z,67.50
2023-05-18T07:06:10.411Z,67.50
2023-05-18T07:07:10.393Z,67.50
2023-05-18T07:08:10.419Z,67.50
2023-05-18T07:09:10.361Z,67.50
2023-05-18T07:10:10.364Z,67.50
2023-05-18T07:11:10.338Z,67.50
2023-05-18T07:12:10.355Z,67.50
2023-05-18T07:13:10.354Z,67.50
2023-05-18T07:14:10.307Z,67.50
2023-05-18T07:15:10.302Z,67.50
2023-05-18T07:16:10.292Z,67.50
2023-05-18T07:17:10.479Z,67.50
2023-05-18T07:18:10.299Z,67.50
2023-05-18T07:19:10.280Z,67.50
2023-05-18T07:20:10.253Z,67.50
2023-05-18T07:21:10.212Z,67.50
2023-05-18T07:22:10.230Z,67.50
2023-05-18T07:23:10.174Z,67.50
2023-05-18T07:24:10.165Z,67.50
2023-05-18T07:25:10.141Z,67.50
2023-05-18T07:26:10.192Z,67.50
2023-05-18T07:27:10.130Z,73.12
2023-05-18T07:28:10.123Z,73.12
2023-05-18T07:29:10.186Z,73.12
2023-05-18T07:30:10.091Z,73.12
2023-05-18T07:31:10.162Z,73.12
2023-05-18T07:32:10.082Z,73.12
2023-05-18T07:33:10.106Z,73.12
2023-05-18T07:34:10.020Z,73.12
2023-05-18T07:35:10.035Z,73.12
2023-05-18T07:36:10.037Z,73.12
2023-05-18T07:37:09.981Z,73.12
2023-05-18T07:38:10.008Z,73.12
2023-05-18T07:39:09.960Z,73.12
2023-05-18T07:40:09.986Z,73.12
2023-05-18T07:41:09.949Z,73.12
2023-05-18T07:42:09.926Z,73.12
2023-05-18T07:43:09.916Z,78.75
2023-05-18T07:44:09.915Z,78.75
2023-05-18T07:45:09.899Z,78.75
2023-05-18T07:46:09.927Z,78.75
2023-05-18T07:47:09.940Z,78.75
2023-05-18T07:48:09.910Z,78.75
2023-05-18T07:49:09.835Z,78.75
2023-05-18T07:50:09.846Z,78.75
2023-05-18T07:51:09.813Z,78.75
2023-05-18T07:52:09.791Z,78.75
2023-05-18T07:53:09.789Z,78.75
2023-05-18T07:54:09.796Z,84.38
2023-05-18T07:55:09.788Z,84.38
2023-05-18T07:56:09.733Z,84.38
2023-05-18T07:57:09.709Z,84.38
2023-05-18T07:58:09.707Z,84.38
2023-05-18T07:59:09.711Z,67.50
2023-05-18T08:00:09.691Z,84.38
2023-05-18T08:01:09.708Z,84.38
2023-05-18T08:02:09.677Z,90.00
2023-05-18T08:03:09.681Z,90.00
2023-05-18T08:04:09.741Z,90.00
2023-05-18T08:05:09.607Z,90.00
2023-05-18T08:06:09.634Z,84.38
2023-05-18T08:07:09.600Z,84.38
2023-05-18T08:08:09.587Z,90.00
2023-05-18T08:09:09.571Z,90.00
2023-05-18T08:10:09.550Z,84.38
2023-05-18T08:11:09.544Z,84.38
2023-05-18T08:12:09.523Z,90.00
2023-05-18T08:13:09.526Z,90.00
2023-05-18T08:14:09.506Z,90.00
2023-05-18T08:15:09.468Z,90.00
2023-05-18T08:16:12.363Z,90.00
2023-05-18T08:17:09.537Z,90.00
2023-05-18T08:18:09.518Z,90.00
2023-05-18T08:19:09.458Z,90.00
2023-05-18T08:20:09.413Z,90.00
2023-05-18T08:21:09.456Z,95.62
2023-05-18T08:22:09.407Z,95.62
2023-05-18T08:23:09.390Z,95.62
2023-05-18T08:24:09.348Z,95.62
2023-05-18T08:25:09.333Z,73.12
2023-05-18T08:26:10.930Z,84.38
2023-05-18T08:27:09.345Z,84.38
2023-05-18T08:28:09.599Z,95.62
2023-05-18T08:29:09.288Z,112.50
2023-05-18T08:30:09.280Z,106.88
2023-05-18T08:31:09.275Z,112.50
2023-05-18T08:32:09.302Z,106.88
2023-05-18T08:33:09.380Z,101.25
2023-05-18T08:34:09.210Z,101.25
2023-05-18T08:35:09.190Z,101.25
2023-05-18T08:36:09.191Z,106.88
2023-05-18T08:37:09.175Z,112.50
2023-05-18T08:38:09.168Z,106.88
2023-05-18T08:39:09.154Z,112.50
2023-05-18T08:40:09.138Z,123.75
2023-05-18T08:41:09.124Z,123.75
2023-05-18T08:42:09.099Z,118.12
2023-05-18T08:43:09.085Z,112.50
2023-05-18T08:44:09.070Z,106.88
2023-05-18T08:45:09.059Z,101.25
2023-05-18T08:46:09.071Z,106.88
2023-05-18T08:47:09.034Z,106.88
2023-05-18T08:48:09.145Z,112.50
2023-05-18T08:49:09.106Z,106.88
2023-05-18T08:50:08.999Z,106.88
2023-05-18T08:51:08.981Z,106.88
2023-05-18T08:52:08.974Z,101.25
2023-05-18T08:53:08.950Z,101.25
2023-05-18T08:54:08.933Z,106.88
2023-05-18T08:55:11.825Z,112.50
2023-05-18T08:56:08.905Z,112.50
2023-05-18T08:57:08.905Z,112.50
2023-05-18T08:58:08.883Z,101.25
2023-05-18T08:59:08.932Z,106.88
2023-05-18T09:00:08.877Z,118.12
2023-05-18T09:01:08.895Z,123.75
2023-05-18T09:02:08.917Z,129.38
2023-05-18T09:03:08.861Z,135.00
2023-05-18T09:04:08.860Z,129.38
2023-05-18T09:05:08.863Z,123.75
2023-05-18T09:06:08.791Z,123.75
2023-05-18T09:07:08.777Z,123.75
2023-05-18T09:08:08.783Z,123.75
2023-05-18T09:09:08.773Z,123.75
2023-05-18T09:10:08.718Z,123.75
2023-05-18T09:11:08.707Z,123.75
2023-05-18T09:12:08.681Z,123.75
2023-05-18T09:13:08.677Z,123.75
2023-05-18T09:14:08.682Z,123.75
2023-05-18T09:15:08.647Z,123.75
2023-05-18T09:16:08.717Z,123.75
2023-05-18T09:17:08.624Z,123.75
2023-05-18T09:18:08.655Z,123.75
2023-05-18T09:19:08.656Z,112.50
2023-05-18T09:20:08.569Z,118.12
2023-05-18T09:21:08.570Z,123.75
2023-05-18T09:22:08.568Z,123.75
2023-05-18T09:23:08.628Z,129.38
2023-05-18T09:24:08.534Z,129.38
2023-05-18T09:25:08.511Z,135.00
2023-05-18T09:26:08.506Z,135.00
2023-05-18T09:27:08.498Z,135.00
2023-05-18T09:28:08.478Z,135.00
2023-05-18T09:29:08.458Z,135.00
2023-05-18T09:30:08.441Z,129.38
2023-05-18T09:31:08.463Z,129.38
2023-05-18T09:32:08.571Z,129.38
2023-05-18T09:33:08.447Z,135.00
2023-05-18T09:34:08.432Z,135.00
2023-05-18T09:35:08.382Z,135.00
2023-05-18T09:36:08.359Z,135.00
2023-05-18T09:37:08.369Z,135.00
2023-05-18T09:38:08.336Z,135.00
2023-05-18T09:39:08.320Z,135.00
2023-05-18T09:40:08.307Z,135.00
2023-05-18T09:41:08.306Z,135.00
2023-05-18T09:42:08.287Z,135.00
2023-05-18T09:43:08.273Z,140.62
2023-05-18T09:44:08.253Z,146.25
2023-05-18T09:45:08.230Z,146.25
2023-05-18T09:46:08.258Z,146.25
2023-05-18T09:47:08.249Z,146.25
2023-05-18T09:48:08.207Z,151.88
2023-05-18T09:49:08.216Z,151.88
2023-05-18T09:50:08.175Z,151.88
2023-05-18T09:51:08.177Z,157.50
2023-05-18T09:52:08.129Z,157.50
2023-05-18T09:53:08.140Z,157.50
2023-05-18T09:54:08.116Z,157.50
2023-05-18T09:55:08.144Z,157.50
2023-05-18T09:56:08.103Z,157.50
2023-05-18T09:57:11.155Z,163.12
2023-05-18T09:58:08.049Z,163.12
2023-05-18T09:59:08.053Z,163.12
2023-05-18T10:00:08.053Z,168.75
2023-05-18T10:01:08.108Z,168.75
2023-05-18T10:02:08.006Z,174.38
2023-05-18T10:03:08.040Z,174.38
2023-05-18T10:04:08.034Z,174.38
2023-05-18T10:05:08.007Z,180.00
2023-05-18T10:06:07.943Z,180.00
2023-05-18T10:07:07.940Z,185.62
2023-05-18T10:08:07.920Z,185.62
2023-05-18T10:09:07.938Z,191.25
2023-05-18T10:10:09.273Z,196.88
2023-05-18T10:11:07.876Z,196.88
2023-05-18T10:12:07.870Z,196.88
2023-05-18T10:13:07.856Z,196.88
2023-05-18T10:14:07.912Z,202.50
2023-05-18T10:15:07.828Z,202.50
2023-05-18T10:16:07.826Z,208.12
2023-05-18T10:18:08.901Z,213.75
2023-05-18T10:19:07.841Z,219.38
2023-05-18T10:20:07.763Z,219.38
2023-05-18T10:21:07.757Z,225.00
2023-05-18T10:22:07.733Z,230.62
2023-05-18T10:23:07.772Z,230.62
2023-05-18T10:24:07.721Z,236.25
2023-05-18T10:25:07.734Z,236.25
2023-05-18T10:26:07.733Z,236.25
2023-05-18T10:27:07.669Z,241.88
2023-05-18T10:28:07.690Z,241.88
2023-05-18T10:29:07.648Z,241.88
2023-05-18T10:30:07.634Z,247.50
2023-05-18T10:31:07.679Z,247.50
2023-05-18T10:32:08.084Z,253.12
2023-05-18T10:33:17.072Z,253.12
2023-05-18T10:34:08.563Z,258.75
2023-05-18T10:35:07.564Z,258.75
2023-05-18T10:36:07.546Z,303.75
2023-05-18T10:37:07.981Z,556.88
2023-05-18T10:38:07.554Z,517.50
2023-05-18T10:39:07.521Z,331.88
2023-05-18T10:40:07.484Z,281.25
2023-05-18T10:41:07.485Z,275.62
2023-05-18T10:42:07.482Z,286.88
2023-05-18T10:43:07.499Z,270.00
2023-05-18T10:44:07.433Z,309.38
2023-05-18T10:45:07.434Z,303.75
2023-05-18T10:46:07.570Z,337.50
2023-05-18T10:47:07.505Z,337.50
2023-05-18T10:48:07.406Z,309.38
2023-05-18T10:49:07.365Z,309.38
2023-05-18T10:50:07.363Z,315.00
2023-05-18T10:51:07.367Z,315.00
2023-05-18T10:52:07.372Z,315.00
2023-05-18T10:53:07.330Z,309.38
2023-05-18T10:54:07.299Z,315.00
2023-05-18T10:55:07.298Z,326.25
2023-05-18T10:56:07.306Z,331.88
2023-05-18T10:57:07.291Z,337.50
2023-05-18T10:58:07.239Z,343.12
2023-05-18T10:59:07.227Z,354.38
2023-05-18T11:00:07.221Z,860.62
2023-05-18T11:01:07.223Z,1350.00
2023-05-18T11:02:07.241Z,1400.62
2023-05-18T11:03:07.223Z,1310.62
2023-05-18T11:04:07.156Z,793.12
2023-05-18T11:05:07.175Z,736.88
2023-05-18T11:06:07.173Z,922.50
2023-05-18T11:07:07.129Z,1192.50
2023-05-18T11:08:07.106Z,1473.75
2023-05-18T11:09:07.097Z,1541.25
2023-05-18T11:10:07.096Z,1648.12
2023-05-18T11:11:07.072Z,1608.75
2023-05-18T11:12:07.047Z,1580.62
2023-05-18T11:13:07.054Z,1867.50
2023-05-18T11:14:07.016Z,2041.88
2023-05-18T11:15:07.036Z,2227.50
2023-05-18T11:16:07.084Z,2233.12
2023-05-18T11:17:06.990Z,2188.12
2023-05-18T11:18:06.997Z,2036.25
2023-05-18T11:19:07.059Z,1901.25
2023-05-18T11:20:07.016Z,1985.62
2023-05-18T11:21:06.932Z,1873.12
2023-05-18T11:22:06.917Z,1845.00
2023-05-18T11:23:06.908Z,1884.38
2023-05-18T11:24:06.905Z,2092.50
2023-05-18T11:25:06.882Z,2086.88
2023-05-18T11:26:06.861Z,1895.62
2023-05-18T11:27:06.850Z,2182.50
2023-05-18T11:28:06.864Z,2205.00
2023-05-18T11:29:06.846Z,1912.50
2023-05-18T11:30:15.269Z,2053.12
2023-05-18T11:31:07.797Z,2250.00
2023-05-18T11:32:08.211Z,2041.88
2023-05-18T11:33:06.905Z,1906.88
2023-05-18T11:34:06.746Z,2109.38
2023-05-18T11:35:06.747Z,2086.88
2023-05-18T11:36:06.725Z,2210.62
2023-05-18T11:37:06.746Z,2160.00
2023-05-18T11:38:06.724Z,2233.12
2023-05-18T11:39:06.726Z,2193.75
2023-05-18T11:40:09.240Z,2199.38
2023-05-18T11:41:06.668Z,2221.88
2023-05-18T11:42:06.661Z,2160.00
2023-05-18T11:43:06.650Z,2199.38
2023-05-18T11:44:06.623Z,2379.38
2023-05-18T11:45:06.619Z,2283.75
2023-05-18T11:46:06.592Z,2081.25
2023-05-18T11:47:06.592Z,2030.62
2023-05-18T11:48:06.622Z,2176.88
2023-05-18T11:49:06.649Z,2379.38
2023-05-18T11:50:06.534Z,2283.75
2023-05-18T11:51:06.520Z,2266.88
2023-05-18T11:52:06.541Z,2188.12
2023-05-18T11:53:06.504Z,2176.88
2023-05-18T11:54:06.481Z,2070.00
2023-05-18T11:55:06.483Z,2025.00
2023-05-18T11:56:06.458Z,2205.00
2023-05-18T11:57:06.465Z,2165.62
2023-05-18T11:58:06.427Z,2064.38
2023-05-18T11:59:06.424Z,2070.00
2023-05-18T12:00:06.409Z,2154.38
2023-05-18T12:01:06.394Z,2317.50
2023-05-18T12:02:06.418Z,2255.62
2023-05-18T12:03:06.498Z,2182.50
2023-05-18T12:04:06.457Z,2424.38
2023-05-18T12:05:06.346Z,2368.12
2023-05-18T12:06:06.341Z,2311.88
2023-05-18T12:07:06.316Z,2452.50
2023-05-18T12:08:06.302Z,2452.50
2023-05-18T12:09:06.282Z,2413.12
2023-05-18T12:10:06.282Z,2261.25
2023-05-18T12:11:06.266Z,2255.62
2023-05-18T12:12:06.257Z,2373.75
2023-05-18T12:13:06.241Z,2278.12
2023-05-18T12:14:06.243Z,2143.12
2023-05-18T12:15:06.213Z,2300.62
2023-05-18T12:16:06.210Z,2340.00
2023-05-18T12:17:06.209Z,2334.38
2023-05-18T12:18:06.165Z,2244.38
2023-05-18T12:19:06.230Z,2373.75
2023-05-18T12:20:06.169Z,2576.25
2023-05-18T12:21:06.120Z,2542.50
2023-05-18T12:22:06.108Z,2626.88
2023-05-18T12:23:06.102Z,2396.25
2023-05-18T12:24:06.146Z,2340.00
2023-05-18T12:25:06.102Z,2283.75
2023-05-18T12:26:06.059Z,2272.50
2023-05-18T12:27:07.548Z,2351.25
2023-05-18T12:28:06.030Z,2413.12
2023-05-18T12:29:06.051Z,2328.75
2023-05-18T12:30:05.999Z,2250.00
2023-05-18T12:31:06.047Z,2407.50
2023-05-18T12:32:05.974Z,2244.38
2023-05-18T12:33:05.982Z,2193.75
2023-05-18T12:34:05.982Z,2368.12
2023-05-18T12:35:05.949Z,2385.00
2023-05-18T12:36:05.926Z,2334.38
2023-05-18T12:37:05.918Z,2379.38
2023-05-18T12:38:05.925Z,2390.62
2023-05-18T12:39:05.901Z,2480.62
2023-05-18T12:40:05.864Z,2390.62
2023-05-18T12:41:05.862Z,2137.50
2023-05-18T12:42:05.838Z,2008.12
2023-05-18T12:43:05.860Z,2036.25
2023-05-18T12:44:05.822Z,2120.62
2023-05-18T12:45:06.787Z,2227.50
2023-05-18T12:46:05.820Z,2255.62
2023-05-18T12:47:05.808Z,2216.25
2023-05-18T12:48:05.931Z,2171.25
2023-05-18T12:49:05.759Z,2221.88